Time;durP1;ratioP1;P1;durP2;ratioP2;P2;SDS_P1;SDS_P2;PMS_P1;PMS_P2;Temp;Humidity;BMP_temperature;BMP_pressure;BME280_temperature;BME280_humidity;BME280_pressure;Samples;Min_cycle;Max_cycle;Signal;HPM_P1;HPM_P2
2023/04/27 05:03:31;;;;;;;10.13;5.50;;;8.60;99.50;;;;;;5009129;23;20055;-71
2023/04/27 05:05:57;;;;;;;10.10;5.32;;;8.70;99.50;;;;;;4961403;29;20261;-71
2023/04/27 05:08:23;;;;;;;13.98;6.10;;;8.70;99.40;;;;;;4973125;28;20047;-69
2023/04/27 05:10:49;;;;;;;8.93;5.72;;;8.70;99.50;;;;;;4964847;29;20316;-69
2023/04/27 05:13:16;;;;;;;11.70;6.00;;;8.70;99.40;;;;;;4976313;28;20081;-72
2023/04/27 05:15:41;;;;;;;13.20;5.82;;;8.80;99.60;;;;;;4989396;28;20324;-70
2023/04/27 05:18:07;;;;;;;12.07;5.90;;;8.80;99.70;;;;;;4987754;28;20089;-70
2023/04/27 05:20:37;;;;;;;12.18;6.43;;;8.90;99.60;;;;;;4966120;28;20024;-72
2023/04/27 05:23:04;;;;;;;11.40;6.30;;;8.90;99.40;;;;;;4974367;28;20034;-71
2023/04/27 05:25:30;;;;;;;11.32;5.55;;;9.00;99.30;;;;;;4989803;28;20043;-72
2023/04/27 05:27:56;;;;;;;10.55;6.28;;;9.10;99.20;;;;;;4990357;28;20035;-70
2023/04/27 05:30:22;;;;;;;13.35;6.28;;;9.20;98.70;;;;;;4989434;28;20031;-71
2023/04/27 05:32:47;;;;;;;14.35;6.35;;;9.20;98.70;;;;;;4989952;28;20222;-71
2023/04/27 05:35:13;;;;;;;11.75;6.18;;;9.30;98.80;;;;;;4969929;28;20031;-71
2023/04/27 05:37:39;;;;;;;9.13;6.05;;;9.30;98.60;;;;;;4970340;28;20070;-71
2023/04/27 05:40:08;;;;;;;10.02;6.25;;;9.30;98.50;;;;;;4970619;29;20101;-72
2023/04/27 05:42:33;;;;;;;11.75;5.35;;;9.40;98.60;;;;;;4970313;29;20027;-70
2023/04/27 05:44:59;;;;;;;9.60;5.47;;;9.40;98.50;;;;;;4970674;29;20094;-71
2023/04/27 05:47:25;;;;;;;8.50;5.30;;;9.50;98.80;;;;;;4970099;29;20216;-71
2023/04/27 05:49:54;;;;;;;10.13;5.95;;;9.60;98.70;;;;;;4970484;29;20032;-71
2023/04/27 05:52:20;;;;;;;10.38;5.18;;;9.70;98.30;;;;;;4970598;28;20035;-72
2023/04/27 05:54:47;;;;;;;11.13;5.28;;;9.90;98.00;;;;;;4952695;28;20338;-71
2023/04/27 05:57:13;;;;;;;10.30;5.45;;;9.90;97.80;;;;;;4975581;28;20030;-71
2023/04/27 05:59:40;;;;;;;10.13;5.00;;;10.00;97.70;;;;;;4987015;28;20216;-72
2023/04/27 06:02:06;;;;;;;10.32;5.85;;;10.10;97.60;;;;;;4972420;28;20325;-72
2023/04/27 06:04:32;;;;;;;10.50;5.10;;;10.20;97.30;;;;;;4947790;29;20043;-72
2023/04/27 06:06:58;;;;;;;10.38;5.60;;;10.30;97.20;;;;;;4947965;29;20043;-72
2023/04/27 06:09:24;;;;;;;9.82;4.90;;;10.40;97.20;;;;;;4947415;29;20321;-71
2023/04/27 06:11:50;;;;;;;12.48;5.75;;;10.50;96.90;;;;;;4931303;29;20044;-71
2023/04/27 06:14:16;;;;;;;10.82;5.15;;;10.40;96.80;;;;;;4928867;29;20306;-72
2023/04/27 06:16:42;;;;;;;11.98;5.53;;;10.30;97.00;;;;;;4928274;29;20036;-72
2023/04/27 06:19:08;;;;;;;8.40;5.25;;;10.50;97.00;;;;;;4928945;29;20225;-71
2023/04/27 06:21:34;;;;;;;10.57;5.57;;;10.50;96.70;;;;;;4928144;29;20038;-71
2023/04/27 06:24:00;;;;;;;7.60;4.95;;;10.60;96.70;;;;;;4928586;29;20040;-71
2023/04/27 06:26:27;;;;;;;12.60;5.63;;;10.70;96.70;;;;;;4927894;29;20040;-71
2023/04/27 06:28:55;;;;;;;10.25;5.25;;;10.80;96.50;;;;;;4928615;29;20270;-70
2023/04/27 06:31:21;;;;;;;10.05;5.28;;;10.70;96.10;;;;;;4928633;29;20039;-71
2023/04/27 06:33:46;;;;;;;10.00;5.50;;;10.80;96.40;;;;;;4928360;29;20064;-71
2023/04/27 06:36:12;;;;;;;11.98;5.40;;;10.80;96.30;;;;;;4928084;29;20095;-71
2023/04/27 06:38:38;;;;;;;9.98;5.30;;;11.00;96.30;;;;;;4936633;29;20028;-71
2023/04/27 06:41:03;;;;;;;9.27;4.82;;;11.10;95.70;;;;;;4928482;29;20028;-71
2023/04/27 06:43:29;;;;;;;8.73;4.88;;;11.20;95.60;;;;;;4927523;29;20032;-71
2023/04/27 06:45:55;;;;;;;9.55;5.22;;;11.00;95.80;;;;;;4928311;29;20039;-72
2023/04/27 06:48:21;;;;;;;9.75;5.53;;;10.90;95.90;;;;;;4928280;29;20028;-71
2023/04/27 06:50:47;;;;;;;11.30;5.35;;;11.00;95.90;;;;;;4927667;29;20104;-71
2023/04/27 06:53:12;;;;;;;12.25;5.55;;;11.00;95.90;;;;;;4927975;29;20028;-71
2023/04/27 06:55:38;;;;;;;11.55;5.50;;;11.10;95.90;;;;;;4927220;29;20032;-70
2023/04/27 06:58:04;;;;;;;12.57;6.00;;;11.30;95.50;;;;;;4927960;29;20043;-70
2023/04/27 07:00:30;;;;;;;11.40;5.68;;;11.40;95.40;;;;;;4945162;29;20023;-70
2023/04/27 07:02:56;;;;;;;9.13;5.07;;;11.70;94.80;;;;;;4946397;29;20232;-71
2023/04/27 07:05:22;;;;;;;9.35;5.45;;;12.00;94.60;;;;;;4947286;29;20051;-70
2023/04/27 07:07:47;;;;;;;10.07;5.25;;;12.10;93.90;;;;;;4946522;29;20063;-71
2023/04/27 07:10:13;;;;;;;10.88;4.53;;;12.20;94.00;;;;;;4926429;29;20062;-71
2023/04/27 07:12:40;;;;;;;8.20;4.90;;;12.50;93.20;;;;;;4927226;29;20120;-71
2023/04/27 07:15:07;;;;;;;8.80;5.40;;;12.60;92.80;;;;;;4927491;29;20071;-73
2023/04/27 07:17:32;;;;;;;10.25;5.30;;;12.70;92.50;;;;;;4927488;29;20107;-71
2023/04/27 07:20:00;;;;;;;10.50;5.32;;;12.70;92.50;;;;;;4927797;29;20072;-76
2023/04/27 07:22:25;;;;;;;10.43;5.32;;;13.00;92.60;;;;;;4927791;29;20040;-71
2023/04/27 07:24:51;;;;;;;14.40;5.45;;;13.10;92.50;;;;;;4926988;29;20036;-72
2023/04/27 07:27:17;;;;;;;10.52;5.45;;;13.30;92.10;;;;;;4927591;29;20079;-72
2023/04/27 07:29:43;;;;;;;12.70;5.47;;;13.40;91.50;;;;;;4910014;29;20222;-71
2023/04/27 07:32:09;;;;;;;11.98;5.47;;;13.30;91.30;;;;;;4936634;29;20084;-71
2023/04/27 07:34:34;;;;;;;11.07;5.55;;;13.50;91.20;;;;;;4913571;29;20317;-70
2023/04/27 07:37:01;;;;;;;9.07;5.05;;;13.60;91.00;;;;;;4929839;29;20287;-70
2023/04/27 07:39:27;;;;;;;10.38;5.40;;;13.70;90.90;;;;;;4932691;29;20051;-71
2023/04/27 07:41:53;;;;;;;13.50;5.80;;;13.80;90.70;;;;;;4926443;29;20365;-73
2023/04/27 07:44:20;;;;;;;10.82;5.30;;;13.90;90.70;;;;;;4927319;29;20095;-72
2023/04/27 07:46:47;;;;;;;12.35;5.45;;;14.00;90.10;;;;;;4926531;29;20035;-71
2023/04/27 07:49:14;;;;;;;10.83;5.17;;;14.10;90.20;;;;;;4927210;29;20051;-71
2023/04/27 07:51:40;;;;;;;8.48;4.97;;;14.30;89.70;;;;;;4926602;29;20653;-72
2023/04/27 07:54:06;;;;;;;10.35;4.25;;;14.50;89.30;;;;;;4927287;29;20024;-71
2023/04/27 07:56:32;;;;;;;10.98;4.53;;;14.40;88.80;;;;;;4930146;29;20035;-72
2023/04/27 07:58:58;;;;;;;9.95;5.10;;;14.40;88.50;;;;;;4946055;29;20035;-71
2023/04/27 08:01:23;;;;;;;9.90;4.72;;;14.30;88.30;;;;;;4945484;29;20023;-72
2023/04/27 08:03:49;;;;;;;12.50;4.60;;;14.50;88.20;;;;;;4945746;29;20285;-71
2023/04/27 08:06:16;;;;;;;7.93;4.57;;;14.50;87.70;;;;;;4945973;29;20042;-71
2023/04/27 08:08:42;;;;;;;9.55;4.45;;;14.70;87.30;;;;;;4945408;29;20035;-71
2023/04/27 08:11:09;;;;;;;7.93;4.07;;;14.80;87.50;;;;;;4945797;29;20031;-71
2023/04/27 08:13:35;;;;;;;11.95;5.22;;;14.80;86.70;;;;;;4945392;29;20050;-73
2023/04/27 08:16:01;;;;;;;8.55;4.10;;;14.90;86.10;;;;;;4945772;29;20381;-72
2023/04/27 08:18:27;;;;;;;9.82;4.40;;;14.90;86.20;;;;;;4945992;29;20221;-72
2023/04/27 08:20:53;;;;;;;9.50;4.45;;;15.00;84.90;;;;;;4945382;29;20040;-72
2023/04/27 08:23:19;;;;;;;10.80;4.20;;;15.00;84.70;;;;;;4945130;29;20035;-71
2023/04/27 08:25:45;;;;;;;9.43;5.38;;;15.10;84.90;;;;;;4945163;29;20099;-71
2023/04/27 08:28:12;;;;;;;13.10;4.20;;;15.20;84.20;;;;;;4952597;29;20023;-71
2023/04/27 08:30:37;;;;;;;9.80;4.50;;;15.30;82.60;;;;;;4965132;29;20039;-70
2023/04/27 08:33:03;;;;;;;8.38;4.53;;;15.30;83.40;;;;;;4948840;29;20074;-71
2023/04/27 08:35:29;;;;;;;10.60;4.72;;;15.40;82.40;;;;;;4949291;29;20039;-72
2023/04/27 08:37:55;;;;;;;10.60;4.47;;;15.20;81.70;;;;;;4951063;29;20132;-72
2023/04/27 08:40:23;;;;;;;8.13;4.03;;;15.20;81.90;;;;;;4942681;29;20039;-72
2023/04/27 08:42:57;;;;;;;6.97;3.72;;;15.30;81.30;;;;;;4944946;29;20044;-73
2023/04/27 08:45:24;;;;;;;7.55;3.75;;;15.40;80.80;;;;;;4930821;29;20032;-71
2023/04/27 08:47:50;;;;;;;8.02;3.92;;;15.40;80.10;;;;;;4926292;29;20328;-71
2023/04/27 08:50:16;;;;;;;6.63;3.58;;;15.50;80.10;;;;;;4926364;29;20063;-72
2023/04/27 08:52:46;;;;;;;10.52;4.28;;;15.60;80.10;;;;;;4935531;29;20024;-74
2023/04/27 08:55:13;;;;;;;8.60;3.63;;;15.80;79.90;;;;;;4926235;29;20051;-72
2023/04/27 08:57:38;;;;;;;8.05;3.60;;;16.00;78.30;;;;;;4943039;29;20038;-73
2023/04/27 09:00:11;;;;;;;11.27;4.55;;;16.20;78.10;;;;;;4945288;29;20020;-71
2023/04/27 09:02:47;;;;;;;7.90;4.65;;;16.50;77.20;;;;;;4944424;29;20119;-72
2023/04/27 09:05:17;;;;;;;6.97;3.63;;;16.70;76.10;;;;;;4942565;29;20197;-75
2023/04/27 09:07:59;;;;;;;6.18;3.40;;;16.80;74.80;;;;;;4954767;29;20032;-74
2023/04/27 09:10:27;;;;;;;6.10;3.30;;;16.70;74.10;;;;;;4937087;29;20221;-71
2023/04/27 09:13:00;;;;;;;4.95;2.97;;;16.80;74.20;;;;;;4954118;29;20254;-71
2023/04/27 09:15:27;;;;;;;8.45;3.10;;;16.70;74.60;;;;;;4958054;29;20036;-71
2023/04/27 09:17:56;;;;;;;7.53;2.80;;;16.70;72.40;;;;;;4929292;29;20456;-70
2023/04/27 09:20:23;;;;;;;7.03;2.90;;;16.70;73.20;;;;;;4950563;29;20027;-72
2023/04/27 09:22:53;;;;;;;7.47;3.13;;;17.00;72.60;;;;;;4947783;29;20036;-70
2023/04/27 09:25:30;;;;;;;9.55;3.17;;;17.00;71.70;;;;;;4949754;29;20036;-70
2023/04/27 09:27:56;;;;;;;5.13;3.17;;;17.00;72.00;;;;;;4953097;29;20028;-69
2023/04/27 09:30:23;;;;;;;7.13;2.78;;;17.20;71.80;;;;;;4951877;29;20047;-70
2023/04/27 09:33:02;;;;;;;5.57;2.60;;;17.20;71.00;;;;;;4945255;29;20039;-69
2023/04/27 09:35:32;;;;;;;4.55;2.75;;;17.50;70.30;;;;;;4949175;29;20055;-70
2023/04/27 09:37:59;;;;;;;7.28;3.47;;;17.40;69.00;;;;;;4924524;29;20374;-70
2023/04/27 09:40:30;;;;;;;8.20;2.83;;;17.30;69.30;;;;;;4955333;29;20035;-71
2023/04/27 09:42:58;;;;;;;6.80;3.38;;;17.50;70.30;;;;;;4964152;29;20047;-71
2023/04/27 09:45:24;;;;;;;6.35;3.30;;;17.50;70.10;;;;;;4967276;29;20090;-70
2023/04/27 09:47:50;;;;;;;7.88;3.42;;;17.40;69.70;;;;;;4944468;29;20037;-71
2023/04/27 09:50:16;;;;;;;7.43;3.10;;;17.30;69.80;;;;;;4925498;29;20020;-70
2023/04/27 09:52:44;;;;;;;6.13;3.20;;;17.10;69.70;;;;;;4932856;29;20040;-70
2023/04/27 09:55:14;;;;;;;6.88;3.10;;;17.00;69.90;;;;;;4928930;29;20043;-71
2023/04/27 09:58:05;;;;;;;7.78;3.00;;;17.10;69.90;;;;;;4944171;29;20322;-69
2023/04/27 10:00:48;;;;;;;7.15;2.78;;;17.10;69.40;;;;;;4929071;29;20087;-71
2023/04/27 10:03:40;;;;;;;8.32;3.33;;;17.20;69.90;;;;;;4928646;29;20358;-69
2023/04/27 10:06:45;;;;;;;6.85;3.05;;;17.40;70.20;;;;;;4906349;29;20044;-70
2023/04/27 10:09:11;;;;;;;8.05;2.95;;;17.50;68.20;;;;;;4945840;29;20258;-70
2023/04/27 10:11:46;;;;;;;7.13;3.58;;;17.50;68.40;;;;;;4943865;29;20031;-70
2023/04/27 10:14:20;;;;;;;6.68;2.90;;;17.60;69.00;;;;;;4965073;29;20027;-69
2023/04/27 10:16:57;;;;;;;6.03;3.03;;;17.80;68.50;;;;;;4966613;29;20328;-70
2023/04/27 10:19:24;;;;;;;6.88;3.22;;;18.00;68.60;;;;;;4966819;29;20023;-69
2023/04/27 10:21:55;;;;;;;6.35;3.20;;;18.10;67.90;;;;;;4939390;29;20024;-70
2023/04/27 10:24:37;;;;;;;7.40;3.20;;;18.20;67.90;;;;;;4948789;29;20019;-70
2023/04/27 10:27:07;;;;;;;5.18;2.90;;;18.20;66.20;;;;;;4961605;29;20094;-72
2023/04/27 10:29:46;;;;;;;5.75;3.10;;;18.40;67.00;;;;;;4961894;29;20142;-71
2023/04/27 10:32:24;;;;;;;5.30;3.10;;;18.60;66.80;;;;;;4957125;29;20059;-71
2023/04/27 10:35:06;;;;;;;8.32;3.38;;;18.90;65.60;;;;;;4946997;29;20040;-70
2023/04/27 10:37:42;;;;;;;5.88;3.40;;;18.80;66.00;;;;;;4947567;29;20383;-69
2023/04/27 10:40:09;;;;;;;6.75;2.70;;;18.90;65.20;;;;;;4947346;29;20272;-70
2023/04/27 10:42:35;;;;;;;7.53;3.40;;;18.90;65.30;;;;;;4944999;29;20035;-70
2023/04/27 10:45:01;;;;;;;8.88;3.08;;;18.90;65.20;;;;;;4914904;29;20032;-75
2023/04/27 10:47:44;;;;;;;7.60;3.45;;;19.00;65.90;;;;;;4928094;29;20209;-71
2023/04/27 10:50:12;;;;;;;7.22;3.60;;;19.20;64.80;;;;;;4928435;29;20210;-70
2023/04/27 10:52:45;;;;;;;7.05;3.03;;;19.00;64.40;;;;;;4927658;29;20020;-70
2023/04/27 10:55:21;;;;;;;5.97;3.47;;;19.10;64.80;;;;;;4931794;29;20027;-70
2023/04/27 10:57:53;;;;;;;7.78;3.67;;;19.20;64.80;;;;;;4946504;29;20062;-70
2023/04/27 11:00:26;;;;;;;6.70;3.40;;;19.30;64.90;;;;;;4947156;29;20032;-71
2023/04/27 11:02:57;;;;;;;8.20;3.10;;;19.80;65.80;;;;;;4946153;29;20039;-72
2023/04/27 11:05:28;;;;;;;7.55;3.40;;;20.10;62.80;;;;;;4947411;29;20024;-72
2023/04/27 11:08:11;;;;;;;7.15;3.20;;;20.30;62.60;;;;;;4945368;29;20038;-71
2023/04/27 11:10:51;;;;;;;7.07;3.08;;;20.50;62.20;;;;;;4944964;29;20042;-71
2023/04/27 11:13:20;;;;;;;5.97;3.50;;;20.70;62.20;;;;;;4937291;29;20027;-71
2023/04/27 11:15:56;;;;;;;;;;;20.80;61.60;;;;;;4927705;29;20095;-69
2023/04/27 11:18:23;;;;;;;5.88;3.15;;;21.20;61.50;;;;;;4941513;29;19946;-70
2023/04/27 11:21:10;;;;;;;5.90;3.13;;;21.30;61.00;;;;;;4961429;28;20110;-70
2023/04/27 11:23:37;;;;;;;6.18;3.42;;;21.40;60.10;;;;;;4965658;28;20039;-70
2023/04/27 11:26:20;;;;;;;8.02;3.10;;;21.80;58.90;;;;;;4965959;28;20117;-70
2023/04/27 11:29:05;;;;;;;8.73;2.92;;;22.40;58.80;;;;;;4954868;29;20297;-71
2023/04/27 11:31:51;;;;;;;9.35;3.22;;;23.20;59.10;;;;;;4965923;28;20336;-70
2023/04/27 11:34:18;;;;;;;6.90;2.85;;;23.70;57.20;;;;;;4965795;28;20078;-72
2023/04/27 11:36:44;;;;;;;8.10;3.28;;;24.20;56.40;;;;;;4965059;29;20321;-71
2023/04/27 11:39:20;;;;;;;6.88;3.30;;;24.70;54.90;;;;;;4964898;29;20027;-69
2023/04/27 11:41:46;;;;;;;6.18;2.88;;;25.10;53.90;;;;;;4964967;28;20055;-69
2023/04/27 11:44:12;;;;;;;6.93;2.85;;;25.10;54.50;;;;;;4965703;29;20082;-70
2023/04/27 11:46:39;;;;;;;6.35;2.80;;;25.50;53.50;;;;;;4964834;28;20092;-71
2023/04/27 11:49:09;;;;;;;9.55;3.30;;;25.50;53.60;;;;;;4965693;28;20109;-70
2023/04/27 11:51:35;;;;;;;4.97;2.58;;;25.30;53.20;;;;;;4964689;28;20046;-71
2023/04/27 11:54:05;;;;;;;6.40;3.05;;;25.70;53.60;;;;;;4965280;29;20035;-70
2023/04/27 11:56:41;;;;;;;5.95;2.70;;;26.10;52.90;;;;;;4965914;28;20039;-71
2023/04/27 11:59:21;;;;;;;5.47;2.70;;;25.80;52.60;;;;;;4964802;28;20046;-71
2023/04/27 12:01:47;;;;;;;5.32;2.90;;;25.90;52.90;;;;;;4964379;28;20043;-70
2023/04/27 12:04:13;;;;;;;6.20;2.90;;;26.00;52.60;;;;;;4965006;29;20075;-70
2023/04/27 12:06:39;;;;;;;6.72;2.80;;;26.30;51.80;;;;;;4964471;28;20039;-71
2023/04/27 12:09:05;;;;;;;6.18;2.47;;;26.20;52.30;;;;;;4964535;28;20046;-70
2023/04/27 12:11:32;;;;;;;4.18;3.00;;;26.80;52.20;;;;;;4964648;29;20031;-70
2023/04/27 12:13:57;;;;;;;7.22;3.17;;;26.90;50.60;;;;;;4964427;28;20062;-71
2023/04/27 12:16:23;;;;;;;7.40;3.10;;;27.70;50.60;;;;;;4965151;29;20043;-70
2023/04/27 12:18:49;;;;;;;5.88;2.95;;;28.20;50.80;;;;;;4964210;29;20122;-70
2023/04/27 12:21:15;;;;;;;4.20;2.75;;;28.90;48.90;;;;;;4965171;28;20042;-69
2023/04/27 12:23:41;;;;;;;4.25;2.83;;;29.20;48.30;;;;;;4964386;28;20257;-71
2023/04/27 12:26:07;;;;;;;6.95;2.67;;;29.20;48.70;;;;;;4964721;28;20031;-73
2023/04/27 12:28:33;;;;;;;5.25;2.90;;;29.70;48.20;;;;;;4965005;28;20027;-73
2023/04/27 12:31:03;;;;;;;7.45;3.40;;;30.20;48.80;;;;;;4964967;29;20041;-72
2023/04/27 12:33:29;;;;;;;5.88;2.92;;;30.50;47.20;;;;;;4959011;28;20039;-71
2023/04/27 12:35:55;;;;;;;5.75;2.85;;;30.20;50.30;;;;;;4964123;29;20054;-73
2023/04/27 12:38:21;;;;;;;5.00;2.60;;;30.50;47.00;;;;;;4964710;29;20047;-72
2023/04/27 12:40:48;;;;;;;4.43;2.50;;;31.40;47.90;;;;;;4964121;28;20027;-72
2023/04/27 12:43:14;;;;;;;6.60;2.83;;;32.60;46.40;;;;;;4964449;28;20031;-70
2023/04/27 12:45:40;;;;;;;6.22;2.72;;;33.00;45.00;;;;;;4964247;28;20332;-71
2023/04/27 12:48:06;;;;;;;6.20;2.50;;;33.20;45.20;;;;;;4964837;28;20035;-70
2023/04/27 12:50:32;;;;;;;5.45;2.78;;;32.70;45.20;;;;;;4964846;29;20041;-70
2023/04/27 12:52:58;;;;;;;5.68;3.05;;;32.30;45.00;;;;;;4964225;28;20043;-70
2023/04/27 12:55:25;;;;;;;5.70;2.15;;;30.90;46.20;;;;;;4963368;29;20212;-70
2023/04/27 12:57:51;;;;;;;5.18;3.03;;;30.40;46.50;;;;;;4964587;28;20057;-69
2023/04/27 13:00:17;;;;;;;6.22;2.90;;;30.10;46.80;;;;;;4964885;29;20055;-69
2023/04/27 13:02:43;;;;;;;8.35;3.20;;;29.60;46.60;;;;;;4963564;28;20047;-70
2023/04/27 13:05:10;;;;;;;7.05;3.35;;;28.00;47.30;;;;;;4964542;28;20043;-71
2023/04/27 13:07:36;;;;;;;4.95;2.90;;;27.60;47.70;;;;;;4964227;28;20035;-71
2023/04/27 13:10:03;;;;;;;7.43;3.53;;;27.10;48.50;;;;;;4963504;28;20289;-71
2023/04/27 13:12:29;;;;;;;6.78;3.65;;;26.00;49.50;;;;;;4968454;29;20043;-71
2023/04/27 13:14:55;;;;;;;5.57;3.58;;;25.80;49.50;;;;;;4967795;28;20031;-70
2023/04/27 13:17:21;;;;;;;9.20;3.92;;;26.20;49.30;;;;;;4968094;28;20099;-70
2023/04/27 13:19:47;;;;;;;5.82;2.85;;;26.20;49.10;;;;;;4967714;28;20027;-70
2023/04/27 13:22:12;;;;;;;6.20;3.22;;;27.50;52.10;;;;;;4968136;28;20376;-71
2023/04/27 13:24:38;;;;;;;5.10;2.67;;;28.10;48.40;;;;;;4966398;29;20027;-70
2023/04/27 13:27:04;;;;;;;5.03;2.90;;;29.00;50.50;;;;;;4968629;28;20032;-69
2023/04/27 13:29:30;;;;;;;7.38;2.85;;;29.90;48.00;;;;;;4968079;29;20023;-70
2023/04/27 13:31:55;;;;;;;8.18;3.00;;;31.00;48.60;;;;;;4967493;29;20099;-71
2023/04/27 13:34:21;;;;;;;4.80;2.67;;;31.20;45.70;;;;;;4967843;29;20035;-72
2023/04/27 13:36:47;;;;;;;6.47;2.80;;;31.50;47.80;;;;;;4967585;29;20038;-70
2023/04/27 13:39:12;;;;;;;5.25;2.75;;;31.80;45.20;;;;;;4967523;29;20389;-70
2023/04/27 13:41:38;;;;;;;5.90;2.67;;;31.80;44.60;;;;;;4967292;29;20261;-70
2023/04/27 13:44:04;;;;;;;5.55;2.67;;;31.60;45.10;;;;;;4967440;28;20027;-71
2023/04/27 13:46:29;;;;;;;6.50;2.90;;;30.80;44.90;;;;;;4967832;29;20035;-71
2023/04/27 13:48:56;;;;;;;7.57;3.30;;;29.80;44.90;;;;;;4967024;29;20043;-70
2023/04/27 13:51:22;;;;;;;7.22;3.05;;;29.40;45.80;;;;;;4967631;28;20085;-70
2023/04/27 13:53:48;;;;;;;4.72;2.30;;;28.70;46.00;;;;;;4967009;28;20047;-71
2023/04/27 13:56:14;;;;;;;5.50;2.97;;;29.40;46.50;;;;;;4968332;28;20047;-70
2023/04/27 13:58:40;;;;;;;5.40;3.15;;;30.50;46.10;;;;;;4967264;29;20047;-70
2023/04/27 14:01:07;;;;;;;5.05;2.45;;;32.00;44.70;;;;;;4967098;28;20182;-68
2023/04/27 14:03:34;;;;;;;4.90;2.90;;;33.60;45.70;;;;;;4966840;28;20341;-70
2023/04/27 14:06:00;;;;;;;5.97;3.00;;;33.10;42.70;;;;;;4966313;28;20102;-69
2023/04/27 14:08:26;;;;;;;4.68;2.58;;;32.40;44.80;;;;;;4965967;28;20099;-71
2023/04/27 14:10:55;;;;;;;7.63;2.60;;;32.90;43.80;;;;;;4965521;29;20068;-70
2023/04/27 14:13:20;;;;;;;5.57;2.20;;;32.60;43.30;;;;;;4965893;28;20039;-70
2023/04/27 14:15:46;;;;;;;5.10;2.55;;;32.00;46.40;;;;;;4965222;29;20065;-70
2023/04/27 14:18:12;;;;;;;4.25;2.55;;;31.00;47.80;;;;;;4965866;28;20051;-70
2023/04/27 14:20:40;;;;;;;5.82;2.80;;;30.50;45.00;;;;;;4963848;28;20031;-71
2023/04/27 14:23:06;;;;;;;6.00;2.47;;;31.10;47.30;;;;;;4965894;28;20216;-70
2023/04/27 14:25:33;;;;;;;6.00;2.92;;;30.90;46.80;;;;;;4965813;28;20045;-69
2023/04/27 14:28:03;;;;;;;5.10;2.78;;;30.10;44.20;;;;;;4965393;28;20043;-69
2023/04/27 14:30:30;;;;;;;5.90;2.50;;;28.70;45.40;;;;;;4965884;28;20043;-68
2023/04/27 14:32:55;;;;;;;7.35;2.53;;;29.00;46.40;;;;;;4965377;28;20062;-70
2023/04/27 14:35:22;;;;;;;5.25;2.92;;;29.10;46.50;;;;;;4961054;29;20333;-69
2023/04/27 14:37:49;;;;;;;7.65;2.70;;;28.10;47.50;;;;;;4965268;28;20100;-69
2023/04/27 14:40:15;;;;;;;5.35;2.78;;;27.60;48.00;;;;;;4965965;28;20035;-70
2023/04/27 14:42:41;;;;;;;6.15;2.80;;;27.00;50.00;;;;;;4959871;29;20359;-70
2023/04/27 14:45:07;;;;;;;6.40;3.03;;;26.40;50.70;;;;;;4965349;29;20182;-70
2023/04/27 14:47:33;;;;;;;7.45;2.72;;;26.20;49.70;;;;;;4965585;28;20035;-69
2023/04/27 14:49:58;;;;;;;6.95;2.85;;;25.80;49.60;;;;;;4964865;28;20042;-70
2023/04/27 14:52:24;;;;;;;6.53;3.00;;;25.40;49.80;;;;;;4965824;29;20106;-70
2023/04/27 14:54:50;;;;;;;5.18;2.70;;;25.00;50.70;;;;;;4966200;28;20310;-70
2023/04/27 14:57:15;;;;;;;4.57;2.22;;;24.70;51.50;;;;;;4965681;29;20238;-70
2023/04/27 14:59:41;;;;;;;5.88;2.30;;;24.50;51.00;;;;;;4965138;28;20027;-69
2023/04/27 15:02:07;;;;;;;4.82;2.20;;;24.70;51.50;;;;;;4926987;28;1119702;-70
2023/04/27 15:04:34;;;;;;;4.13;2.28;;;24.50;53.10;;;;;;4966015;28;20035;-69
2023/04/27 15:07:00;;;;;;;5.35;2.67;;;24.30;51.00;;;;;;4966465;28;20309;-70
2023/04/27 15:09:26;;;;;;;4.95;2.60;;;24.60;50.90;;;;;;4966330;28;20039;-70
2023/04/27 15:11:51;;;;;;;6.63;2.50;;;24.80;51.20;;;;;;4965857;29;20019;-69
2023/04/27 15:14:17;;;;;;;4.82;2.45;;;25.10;52.00;;;;;;4966212;28;20194;-70
2023/04/27 15:16:43;;;;;;;4.93;2.35;;;25.00;49.60;;;;;;4965325;29;20305;-70
2023/04/27 15:19:08;;;;;;;5.05;2.30;;;25.20;51.80;;;;;;4966062;29;20209;-71
2023/04/27 15:21:34;;;;;;;4.82;2.25;;;26.40;49.10;;;;;;4965742;29;20210;-70
2023/04/27 15:24:00;;;;;;;5.03;2.30;;;26.40;48.30;;;;;;4965898;28;20046;-70
2023/04/27 15:26:26;;;;;;;7.10;2.15;;;26.00;49.20;;;;;;4966007;28;20031;-70
2023/04/27 15:28:53;;;;;;;7.20;2.45;;;25.50;49.80;;;;;;4965314;28;20294;-70
2023/04/27 15:31:20;;;;;;;7.60;2.50;;;24.90;49.80;;;;;;4965461;28;20039;-69
2023/04/27 15:33:45;;;;;;;5.75;2.40;;;24.30;52.30;;;;;;4965621;28;20027;-69
2023/04/27 15:36:11;;;;;;;7.38;2.28;;;24.10;52.80;;;;;;4959907;29;20038;-69
2023/04/27 15:38:37;;;;;;;6.10;2.88;;;23.90;52.20;;;;;;4965230;28;20066;-69
2023/04/27 15:41:03;;;;;;;6.50;2.70;;;23.70;52.70;;;;;;4965533;29;20034;-69
2023/04/27 15:43:28;;;;;;;5.53;2.95;;;23.70;53.50;;;;;;4965528;29;20344;-70
2023/04/27 15:45:54;;;;;;;6.90;2.50;;;23.80;53.40;;;;;;4965000;29;20357;-71
2023/04/27 15:48:20;;;;;;;7.60;2.38;;;23.50;52.80;;;;;;4965380;29;20229;-70
2023/04/27 15:50:46;;;;;;;8.35;3.38;;;23.40;53.10;;;;;;4964947;29;20245;-70
2023/04/27 15:53:11;;;;;;;6.80;3.15;;;23.20;53.50;;;;;;4965571;28;20034;-70
2023/04/27 15:55:37;;;;;;;10.10;3.58;;;22.80;54.40;;;;;;4967130;28;20042;-69
2023/04/27 15:58:03;;;;;;;7.38;4.13;;;22.50;54.80;;;;;;4965069;29;20098;-70
2023/04/27 16:00:29;;;;;;;7.00;3.08;;;22.10;55.10;;;;;;4964339;28;20026;-70
2023/04/27 16:02:55;;;;;;;6.75;2.80;;;21.70;56.50;;;;;;4964623;28;20329;-69
2023/04/27 16:05:20;;;;;;;8.75;3.20;;;21.60;57.00;;;;;;4964842;28;20031;-69
2023/04/27 16:07:46;;;;;;;7.07;3.17;;;21.60;56.60;;;;;;4964290;29;20039;-69
2023/04/27 16:10:12;;;;;;;6.53;3.40;;;21.70;56.40;;;;;;4965252;28;20034;-70
2023/04/27 16:12:38;;;;;;;6.03;2.50;;;21.60;56.60;;;;;;4964883;29;20267;-70
2023/04/27 16:15:04;;;;;;;4.60;2.78;;;21.60;59.30;;;;;;4964799;28;20027;-70
2023/04/27 16:17:34;;;;;;;4.38;2.60;;;21.90;57.70;;;;;;4965162;28;20328;-69
2023/04/27 16:20:00;;;;;;;6.03;3.15;;;22.00;56.10;;;;;;4965062;29;20301;-70
2023/04/27 16:22:26;;;;;;;9.05;3.50;;;22.30;56.10;;;;;;4964791;28;20372;-70
2023/04/27 16:24:52;;;;;;;6.10;2.65;;;22.70;55.60;;;;;;4964478;28;20031;-68
2023/04/27 16:27:19;;;;;;;6.45;3.17;;;23.30;56.00;;;;;;4965056;28;20031;-69
2023/04/27 16:29:45;;;;;;;10.27;3.40;;;23.40;54.40;;;;;;4962914;29;20096;-71
2023/04/27 16:32:11;;;;;;;7.32;2.92;;;24.00;53.60;;;;;;4964625;28;20035;-70
2023/04/27 16:34:37;;;;;;;8.60;2.60;;;25.10;52.50;;;;;;4964063;29;20054;-70
2023/04/27 16:37:04;;;;;;;7.63;2.67;;;25.50;52.10;;;;;;4964719;28;20064;-69
2023/04/27 16:39:30;;;;;;;7.32;3.00;;;25.50;51.50;;;;;;4963821;29;20027;-70
2023/04/27 16:41:56;;;;;;;5.10;3.20;;;24.80;51.90;;;;;;4964462;28;20253;-69
2023/04/27 16:44:22;;;;;;;9.05;3.40;;;24.40;52.50;;;;;;4963777;28;20020;-70
2023/04/27 16:46:50;;;;;;;5.47;2.60;;;24.30;52.50;;;;;;4964316;28;20063;-69
2023/04/27 16:49:16;;;;;;;5.70;2.60;;;23.90;53.10;;;;;;4964829;28;20364;-69
2023/04/27 16:51:41;;;;;;;6.13;2.53;;;23.60;54.40;;;;;;4963973;28;20023;-69
2023/04/27 16:54:08;;;;;;;7.53;3.10;;;22.80;54.80;;;;;;4964506;28;20047;-69
2023/04/27 16:56:35;;;;;;;5.72;2.50;;;22.30;56.40;;;;;;4961729;29;20224;-68
2023/04/27 16:59:04;;;;;;;6.68;2.75;;;22.30;58.80;;;;;;4961593;28;20102;-67
2023/04/27 17:01:30;;;;;;;6.40;3.10;;;22.20;57.40;;;;;;4964170;28;20086;-70
2023/04/27 17:03:57;;;;;;;6.38;2.83;;;22.00;56.70;;;;;;4964294;29;20325;-70
2023/04/27 17:06:26;;;;;;;8.57;4.10;;;21.70;58.00;;;;;;4964592;28;20046;-70
2023/04/27 17:08:53;;;;;;;7.82;2.72;;;21.40;56.70;;;;;;4965183;28;20043;-70
2023/04/27 17:11:19;;;;;;;6.75;2.97;;;21.10;59.40;;;;;;4964907;29;20035;-71
2023/04/27 17:13:48;;;;;;;7.05;3.40;;;21.00;58.40;;;;;;4963915;29;20062;-70
2023/04/27 17:16:15;;;;;;;7.03;3.50;;;21.10;59.40;;;;;;4964392;28;20023;-69
2023/04/27 17:18:41;;;;;;;8.23;3.27;;;21.20;59.20;;;;;;4963703;28;20027;-70
2023/04/27 17:21:08;;;;;;;7.22;2.88;;;21.60;58.20;;;;;;4964201;29;20039;-71
2023/04/27 17:23:34;;;;;;;6.68;2.85;;;21.80;59.10;;;;;;4964395;29;20094;-71
2023/04/27 17:26:01;;;;;;;5.75;2.83;;;21.80;58.60;;;;;;4962708;28;20107;-70
2023/04/27 17:28:28;;;;;;;5.10;2.90;;;21.60;58.90;;;;;;4964013;29;20309;-70
2023/04/27 17:30:53;;;;;;;10.93;2.78;;;21.20;58.00;;;;;;4964031;28;20030;-70
2023/04/27 17:33:19;;;;;;;5.47;2.83;;;20.90;58.90;;;;;;4963998;29;20019;-69
2023/04/27 17:35:47;;;;;;;5.93;2.40;;;20.60;59.60;;;;;;4964083;29;20039;-70
2023/04/27 17:38:14;;;;;;;7.75;3.42;;;20.40;61.30;;;;;;4963855;29;20321;-69
2023/04/27 17:40:41;;;;;;;5.68;3.00;;;20.20;61.70;;;;;;4963854;28;20037;-70
2023/04/27 17:43:07;;;;;;;4.57;2.80;;;19.90;60.10;;;;;;4963964;28;20091;-70
2023/04/27 17:45:33;;;;;;;4.78;2.55;;;19.80;60.40;;;;;;4964084;28;20098;-69
2023/04/27 17:47:59;;;;;;;5.95;2.70;;;19.60;61.30;;;;;;4963379;29;20094;-69
2023/04/27 17:50:25;;;;;;;7.60;2.90;;;19.50;62.70;;;;;;4963860;28;20031;-69